sensor_id;sensor_type;location;lat;lon;timestamp;P1;durP1;ratioP1;P2;durP2;ratioP2
75450;SDS011;64029;48.244;9.188;2023-12-29T00:01:39;13.70;;;9.40;;
75450;SDS011;64029;48.244;9.188;2023-12-29T00:04:06;17.20;;;10.67;;
75450;SDS011;64029;48.244;9.188;2023-12-29T00:06:33;15.30;;;10.70;;
75450;SDS011;64029;48.244;9.188;2023-12-29T00:09:03;15.90;;;12.40;;
75450;SDS011;64029;48.244;9.188;2023-12-29T00:11:30;17.00;;;12.70;;
75450;SDS011;64029;48.244;9.188;2023-12-29T00:13:57;13.30;;;10.27;;
75450;SDS011;64029;48.244;9.188;2023-12-29T00:16:23;15.17;;;11.10;;
75450;SDS011;64029;48.244;9.188;2023-12-29T00:18:51;21.17;;;12.50;;
75450;SDS011;64029;48.244;9.188;2023-12-29T00:21:18;16.40;;;11.60;;
75450;SDS011;64029;48.244;9.188;2023-12-29T00:23:46;17.83;;;11.97;;
75450;SDS011;64029;48.244;9.188;2023-12-29T00:26:15;16.40;;;11.70;;
75450;SDS011;64029;48.244;9.188;2023-12-29T00:28:42;18.40;;;10.93;;
75450;SDS011;64029;48.244;9.188;2023-12-29T00:31:13;20.37;;;12.97;;
75450;SDS011;64029;48.244;9.188;2023-12-29T00:33:40;17.47;;;11.20;;
75450;SDS011;64029;48.244;9.188;2023-12-29T00:36:09;14.23;;;8.83;;
75450;SDS011;64029;48.244;9.188;2023-12-29T00:38:41;10.83;;;7.73;;
75450;SDS011;64029;48.244;9.188;2023-12-29T00:41:08;9.77;;;7.20;;
75450;SDS011;64029;48.244;9.188;2023-12-29T00:43:35;10.17;;;7.60;;
75450;SDS011;64029;48.244;9.188;2023-12-29T00:46:02;11.80;;;7.93;;
75450;SDS011;64029;48.244;9.188;2023-12-29T00:48:29;11.17;;;8.23;;
75450;SDS011;64029;48.244;9.188;2023-12-29T00:50:56;8.83;;;7.33;;
75450;SDS011;64029;48.244;9.188;2023-12-29T00:53:24;9.23;;;7.43;;
75450;SDS011;64029;48.244;9.188;2023-12-29T00:55:51;10.70;;;7.73;;
75450;SDS011;64029;48.244;9.188;2023-12-29T00:58:18;13.80;;;8.47;;
75450;SDS011;64029;48.244;9.188;2023-12-29T01:00:45;11.00;;;7.90;;
75450;SDS011;64029;48.244;9.188;2023-12-29T01:03:12;9.93;;;7.23;;
75450;SDS011;64029;48.244;9.188;2023-12-29T01:05:38;12.13;;;7.70;;
75450;SDS011;64029;48.244;9.188;2023-12-29T01:08:05;8.50;;;7.00;;
75450;SDS011;64029;48.244;9.188;2023-12-29T01:10:34;10.93;;;8.37;;
75450;SDS011;64029;48.244;9.188;2023-12-29T01:13:00;11.27;;;8.20;;
75450;SDS011;64029;48.244;9.188;2023-12-29T01:15:27;13.63;;;9.23;;
75450;SDS011;64029;48.244;9.188;2023-12-29T01:17:54;14.27;;;9.83;;
75450;SDS011;64029;48.244;9.188;2023-12-29T01:20:21;14.20;;;9.83;;
75450;SDS011;64029;48.244;9.188;2023-12-29T01:22:49;10.47;;;7.70;;
75450;SDS011;64029;48.244;9.188;2023-12-29T01:25:16;9.87;;;7.37;;
75450;SDS011;64029;48.244;9.188;2023-12-29T01:27:44;15.37;;;7.97;;
75450;SDS011;64029;48.244;9.188;2023-12-29T01:30:12;13.27;;;7.70;;
75450;SDS011;64029;48.244;9.188;2023-12-29T01:32:38;11.03;;;8.07;;
75450;SDS011;64029;48.244;9.188;2023-12-29T01:35:06;10.87;;;7.30;;
75450;SDS011;64029;48.244;9.188;2023-12-29T01:37:33;9.00;;;6.40;;
75450;SDS011;64029;48.244;9.188;2023-12-29T01:40:00;11.73;;;5.60;;
75450;SDS011;64029;48.244;9.188;2023-12-29T01:42:26;7.10;;;5.80;;
75450;SDS011;64029;48.244;9.188;2023-12-29T01:44:55;8.77;;;6.07;;
75450;SDS011;64029;48.244;9.188;2023-12-29T01:47:22;8.27;;;5.70;;
75450;SDS011;64029;48.244;9.188;2023-12-29T01:49:49;6.97;;;5.40;;
75450;SDS011;64029;48.244;9.188;2023-12-29T01:52:16;7.10;;;6.00;;
75450;SDS011;64029;48.244;9.188;2023-12-29T01:54:44;5.60;;;4.87;;
75450;SDS011;64029;48.244;9.188;2023-12-29T01:57:13;9.00;;;5.40;;
75450;SDS011;64029;48.244;9.188;2023-12-29T01:59:41;6.30;;;5.13;;
75450;SDS011;64029;48.244;9.188;2023-12-29T02:02:11;8.70;;;5.70;;
75450;SDS011;64029;48.244;9.188;2023-12-29T02:04:40;7.87;;;5.70;;
75450;SDS011;64029;48.244;9.188;2023-12-29T02:07:08;6.70;;;5.00;;
75450;SDS011;64029;48.244;9.188;2023-12-29T02:09:35;8.20;;;5.90;;
75450;SDS011;64029;48.244;9.188;2023-12-29T02:12:02;10.17;;;7.30;;
75450;SDS011;64029;48.244;9.188;2023-12-29T02:14:30;9.10;;;7.53;;
75450;SDS011;64029;48.244;9.188;2023-12-29T02:16:58;9.13;;;7.17;;
75450;SDS011;64029;48.244;9.188;2023-12-29T02:19:44;11.03;;;6.97;;
75450;SDS011;64029;48.244;9.188;2023-12-29T02:22:14;9.10;;;6.63;;
75450;SDS011;64029;48.244;9.188;2023-12-29T02:24:45;8.53;;;6.57;;
75450;SDS011;64029;48.244;9.188;2023-12-29T02:27:16;10.00;;;6.60;;
75450;SDS011;64029;48.244;9.188;2023-12-29T02:29:52;8.90;;;6.70;;
75450;SDS011;64029;48.244;9.188;2023-12-29T02:32:28;11.00;;;7.63;;
75450;SDS011;64029;48.244;9.188;2023-12-29T02:34:56;11.07;;;7.13;;
75450;SDS011;64029;48.244;9.188;2023-12-29T02:37:25;7.50;;;6.27;;
75450;SDS011;64029;48.244;9.188;2023-12-29T02:39:55;10.70;;;7.60;;
75450;SDS011;64029;48.244;9.188;2023-12-29T02:42:23;11.23;;;7.80;;
75450;SDS011;64029;48.244;9.188;2023-12-29T02:44:50;11.17;;;6.47;;
75450;SDS011;64029;48.244;9.188;2023-12-29T02:47:17;8.93;;;6.47;;
75450;SDS011;64029;48.244;9.188;2023-12-29T02:49:44;8.90;;;7.13;;
75450;SDS011;64029;48.244;9.188;2023-12-29T02:52:11;9.93;;;6.60;;
75450;SDS011;64029;48.244;9.188;2023-12-29T02:54:37;10.37;;;6.87;;
75450;SDS011;64029;48.244;9.188;2023-12-29T02:57:06;8.60;;;6.37;;
75450;SDS011;64029;48.244;9.188;2023-12-29T02:59:32;9.87;;;6.90;;
75450;SDS011;64029;48.244;9.188;2023-12-29T03:01:59;10.03;;;6.63;;
75450;SDS011;64029;48.244;9.188;2023-12-29T03:04:26;11.20;;;7.27;;
75450;SDS011;64029;48.244;9.188;2023-12-29T03:06:53;11.43;;;6.80;;
75450;SDS011;64029;48.244;9.188;2023-12-29T03:09:20;9.23;;;6.80;;
75450;SDS011;64029;48.244;9.188;2023-12-29T03:11:47;9.23;;;6.73;;
75450;SDS011;64029;48.244;9.188;2023-12-29T03:14:15;10.50;;;7.53;;
75450;SDS011;64029;48.244;9.188;2023-12-29T03:16:42;7.93;;;6.03;;
75450;SDS011;64029;48.244;9.188;2023-12-29T03:19:09;8.50;;;6.47;;
75450;SDS011;64029;48.244;9.188;2023-12-29T03:21:36;8.87;;;6.30;;
75450;SDS011;64029;48.244;9.188;2023-12-29T03:24:03;9.50;;;7.20;;
75450;SDS011;64029;48.244;9.188;2023-12-29T03:26:30;9.87;;;6.50;;
75450;SDS011;64029;48.244;9.188;2023-12-29T03:28:56;9.40;;;6.50;;
75450;SDS011;64029;48.244;9.188;2023-12-29T03:31:25;12.97;;;6.70;;
75450;SDS011;64029;48.244;9.188;2023-12-29T03:33:52;10.87;;;7.30;;
75450;SDS011;64029;48.244;9.188;2023-12-29T03:36:19;9.37;;;7.00;;
75450;SDS011;64029;48.244;9.188;2023-12-29T03:38:45;13.00;;;7.10;;
75450;SDS011;64029;48.244;9.188;2023-12-29T03:41:12;10.00;;;7.37;;
75450;SDS011;64029;48.244;9.188;2023-12-29T03:43:39;8.73;;;6.47;;
75450;SDS011;64029;48.244;9.188;2023-12-29T03:46:14;12.13;;;7.60;;
75450;SDS011;64029;48.244;9.188;2023-12-29T03:48:43;8.70;;;7.47;;
75450;SDS011;64029;48.244;9.188;2023-12-29T03:51:10;9.23;;;7.27;;
75450;SDS011;64029;48.244;9.188;2023-12-29T03:53:37;9.00;;;7.67;;
75450;SDS011;64029;48.244;9.188;2023-12-29T03:56:04;11.07;;;7.13;;
75450;SDS011;64029;48.244;9.188;2023-12-29T03:58:31;8.40;;;6.40;;
75450;SDS011;64029;48.244;9.188;2023-12-29T04:00:58;8.80;;;6.23;;
75450;SDS011;64029;48.244;9.188;2023-12-29T04:03:25;9.57;;;6.93;;
75450;SDS011;64029;48.244;9.188;2023-12-29T04:05:53;9.77;;;7.20;;
75450;SDS011;64029;48.244;9.188;2023-12-29T04:08:20;10.10;;;6.60;;
75450;SDS011;64029;48.244;9.188;2023-12-29T04:10:46;10.53;;;7.90;;
75450;SDS011;64029;48.244;9.188;2023-12-29T04:13:13;9.60;;;7.13;;
75450;SDS011;64029;48.244;9.188;2023-12-29T04:15:40;10.23;;;6.70;;
75450;SDS011;64029;48.244;9.188;2023-12-29T04:18:07;8.20;;;6.90;;
75450;SDS011;64029;48.244;9.188;2023-12-29T04:20:34;9.80;;;7.17;;
75450;SDS011;64029;48.244;9.188;2023-12-29T04:23:02;10.50;;;7.10;;
75450;SDS011;64029;48.244;9.188;2023-12-29T04:25:29;9.10;;;7.07;;
75450;SDS011;64029;48.244;9.188;2023-12-29T04:27:55;11.50;;;7.37;;
75450;SDS011;64029;48.244;9.188;2023-12-29T04:30:22;7.87;;;6.30;;
75450;SDS011;64029;48.244;9.188;2023-12-29T04:32:49;8.87;;;6.87;;
75450;SDS011;64029;48.244;9.188;2023-12-29T04:35:16;9.30;;;6.63;;
75450;SDS011;64029;48.244;9.188;2023-12-29T04:37:44;9.77;;;7.13;;
75450;SDS011;64029;48.244;9.188;2023-12-29T04:40:12;8.63;;;6.67;;
75450;SDS011;64029;48.244;9.188;2023-12-29T04:42:39;9.17;;;7.03;;
75450;SDS011;64029;48.244;9.188;2023-12-29T04:45:07;10.27;;;5.87;;
75450;SDS011;64029;48.244;9.188;2023-12-29T04:47:35;8.00;;;6.27;;
75450;SDS011;64029;48.244;9.188;2023-12-29T04:50:02;9.13;;;6.40;;
75450;SDS011;64029;48.244;9.188;2023-12-29T04:52:30;7.23;;;6.00;;
75450;SDS011;64029;48.244;9.188;2023-12-29T04:54:57;12.80;;;6.43;;
75450;SDS011;64029;48.244;9.188;2023-12-29T04:57:26;7.60;;;5.60;;
75450;SDS011;64029;48.244;9.188;2023-12-29T04:59:52;8.57;;;6.27;;
75450;SDS011;64029;48.244;9.188;2023-12-29T05:02:19;6.87;;;5.47;;
75450;SDS011;64029;48.244;9.188;2023-12-29T05:04:46;8.00;;;6.33;;
75450;SDS011;64029;48.244;9.188;2023-12-29T05:07:13;9.90;;;5.70;;
75450;SDS011;64029;48.244;9.188;2023-12-29T05:09:40;6.90;;;5.60;;
75450;SDS011;64029;48.244;9.188;2023-12-29T05:12:07;6.97;;;5.13;;
75450;SDS011;64029;48.244;9.188;2023-12-29T05:14:35;6.37;;;5.70;;
75450;SDS011;64029;48.244;9.188;2023-12-29T05:17:02;6.30;;;5.33;;
75450;SDS011;64029;48.244;9.188;2023-12-29T05:19:29;6.00;;;5.40;;
75450;SDS011;64029;48.244;9.188;2023-12-29T05:21:55;5.93;;;5.10;;
75450;SDS011;64029;48.244;9.188;2023-12-29T05:24:22;5.67;;;5.07;;
75450;SDS011;64029;48.244;9.188;2023-12-29T05:26:49;10.20;;;6.00;;
75450;SDS011;64029;48.244;9.188;2023-12-29T05:29:16;5.27;;;4.57;;
75450;SDS011;64029;48.244;9.188;2023-12-29T05:31:44;5.63;;;4.90;;
75450;SDS011;64029;48.244;9.188;2023-12-29T05:34:11;5.27;;;4.13;;
75450;SDS011;64029;48.244;9.188;2023-12-29T05:36:38;6.23;;;4.93;;
75450;SDS011;64029;48.244;9.188;2023-12-29T05:39:05;8.87;;;4.80;;
75450;SDS011;64029;48.244;9.188;2023-12-29T05:41:32;5.50;;;4.50;;
75450;SDS011;64029;48.244;9.188;2023-12-29T05:43:59;6.03;;;4.57;;
75450;SDS011;64029;48.244;9.188;2023-12-29T05:46:26;9.90;;;7.07;;
75450;SDS011;64029;48.244;9.188;2023-12-29T05:48:54;11.00;;;7.03;;
75450;SDS011;64029;48.244;9.188;2023-12-29T05:51:21;9.97;;;7.13;;
75450;SDS011;64029;48.244;9.188;2023-12-29T05:53:48;10.30;;;8.03;;
75450;SDS011;64029;48.244;9.188;2023-12-29T05:56:15;11.83;;;7.33;;
75450;SDS011;64029;48.244;9.188;2023-12-29T05:58:42;16.60;;;11.10;;
75450;SDS011;64029;48.244;9.188;2023-12-29T06:01:09;11.40;;;7.70;;
75450;SDS011;64029;48.244;9.188;2023-12-29T06:03:36;15.27;;;10.40;;
75450;SDS011;64029;48.244;9.188;2023-12-29T06:06:05;12.80;;;9.20;;
75450;SDS011;64029;48.244;9.188;2023-12-29T06:08:32;11.63;;;8.83;;
75450;SDS011;64029;48.244;9.188;2023-12-29T06:10:59;13.60;;;8.73;;
75450;SDS011;64029;48.244;9.188;2023-12-29T06:13:26;13.93;;;10.13;;
75450;SDS011;64029;48.244;9.188;2023-12-29T06:15:53;15.80;;;9.70;;
75450;SDS011;64029;48.244;9.188;2023-12-29T06:18:20;13.33;;;8.93;;
75450;SDS011;64029;48.244;9.188;2023-12-29T06:20:48;10.80;;;8.70;;
75450;SDS011;64029;48.244;9.188;2023-12-29T06:23:16;12.60;;;8.63;;
75450;SDS011;64029;48.244;9.188;2023-12-29T06:25:43;11.30;;;7.90;;
75450;SDS011;64029;48.244;9.188;2023-12-29T06:28:10;8.47;;;6.83;;
75450;SDS011;64029;48.244;9.188;2023-12-29T06:30:36;8.67;;;7.13;;
75450;SDS011;64029;48.244;9.188;2023-12-29T06:33:04;8.93;;;5.70;;
75450;SDS011;64029;48.244;9.188;2023-12-29T06:35:31;7.20;;;5.30;;
75450;SDS011;64029;48.244;9.188;2023-12-29T06:37:58;5.63;;;4.50;;
75450;SDS011;64029;48.244;9.188;2023-12-29T06:40:26;5.30;;;4.30;;
75450;SDS011;64029;48.244;9.188;2023-12-29T06:42:53;6.03;;;4.33;;
75450;SDS011;64029;48.244;9.188;2023-12-29T06:45:20;4.30;;;3.57;;
75450;SDS011;64029;48.244;9.188;2023-12-29T06:47:47;4.93;;;4.07;;
75450;SDS011;64029;48.244;9.188;2023-12-29T06:50:14;5.50;;;4.10;;
75450;SDS011;64029;48.244;9.188;2023-12-29T06:52:41;4.73;;;4.20;;
75450;SDS011;64029;48.244;9.188;2023-12-29T06:55:08;6.40;;;4.67;;
75450;SDS011;64029;48.244;9.188;2023-12-29T06:57:36;5.50;;;4.50;;
75450;SDS011;64029;48.244;9.188;2023-12-29T07:00:04;6.30;;;4.30;;
75450;SDS011;64029;48.244;9.188;2023-12-29T07:02:31;6.60;;;4.70;;
75450;SDS011;64029;48.244;9.188;2023-12-29T07:04:58;5.10;;;4.60;;
75450;SDS011;64029;48.244;9.188;2023-12-29T07:07:26;5.73;;;4.60;;
75450;SDS011;64029;48.244;9.188;2023-12-29T07:09:53;5.93;;;5.20;;
75450;SDS011;64029;48.244;9.188;2023-12-29T07:12:20;6.97;;;6.10;;
75450;SDS011;64029;48.244;9.188;2023-12-29T07:14:48;5.63;;;5.13;;
75450;SDS011;64029;48.244;9.188;2023-12-29T07:17:15;6.50;;;5.50;;
75450;SDS011;64029;48.244;9.188;2023-12-29T07:19:42;5.40;;;4.90;;
75450;SDS011;64029;48.244;9.188;2023-12-29T07:22:08;6.03;;;5.27;;
75450;SDS011;64029;48.244;9.188;2023-12-29T07:24:35;7.97;;;5.80;;
75450;SDS011;64029;48.244;9.188;2023-12-29T07:27:03;6.20;;;5.70;;
75450;SDS011;64029;48.244;9.188;2023-12-29T07:29:30;7.60;;;5.47;;
75450;SDS011;64029;48.244;9.188;2023-12-29T07:31:58;5.70;;;5.17;;
75450;SDS011;64029;48.244;9.188;2023-12-29T07:34:25;5.93;;;4.97;;
75450;SDS011;64029;48.244;9.188;2023-12-29T07:36:53;6.33;;;5.63;;
75450;SDS011;64029;48.244;9.188;2023-12-29T07:39:20;5.87;;;5.27;;
75450;SDS011;64029;48.244;9.188;2023-12-29T07:41:47;6.37;;;5.77;;
75450;SDS011;64029;48.244;9.188;2023-12-29T07:44:15;6.07;;;5.47;;
75450;SDS011;64029;48.244;9.188;2023-12-29T07:46:43;5.97;;;5.30;;
75450;SDS011;64029;48.244;9.188;2023-12-29T07:49:11;7.97;;;5.83;;
75450;SDS011;64029;48.244;9.188;2023-12-29T07:51:39;6.90;;;5.20;;
75450;SDS011;64029;48.244;9.188;2023-12-29T07:54:06;5.93;;;4.97;;
75450;SDS011;64029;48.244;9.188;2023-12-29T07:56:33;7.93;;;5.60;;
75450;SDS011;64029;48.244;9.188;2023-12-29T07:59:02;11.40;;;7.97;;
75450;SDS011;64029;48.244;9.188;2023-12-29T08:01:28;6.17;;;5.57;;
75450;SDS011;64029;48.244;9.188;2023-12-29T08:03:55;7.77;;;6.60;;
75450;SDS011;64029;48.244;9.188;2023-12-29T08:06:23;9.70;;;6.50;;
75450;SDS011;64029;48.244;9.188;2023-12-29T08:08:50;6.80;;;5.87;;
75450;SDS011;64029;48.244;9.188;2023-12-29T08:11:17;8.20;;;6.67;;
75450;SDS011;64029;48.244;9.188;2023-12-29T08:13:45;7.83;;;6.00;;
75450;SDS011;64029;48.244;9.188;2023-12-29T08:16:13;14.10;;;9.90;;
75450;SDS011;64029;48.244;9.188;2023-12-29T08:18:42;12.73;;;9.30;;
75450;SDS011;64029;48.244;9.188;2023-12-29T08:21:15;10.07;;;7.50;;
75450;SDS011;64029;48.244;9.188;2023-12-29T08:23:44;12.57;;;8.13;;
75450;SDS011;64029;48.244;9.188;2023-12-29T08:26:11;19.07;;;12.17;;
75450;SDS011;64029;48.244;9.188;2023-12-29T08:28:38;15.80;;;11.17;;
75450;SDS011;64029;48.244;9.188;2023-12-29T08:31:06;20.17;;;11.97;;
75450;SDS011;64029;48.244;9.188;2023-12-29T08:33:33;23.40;;;13.77;;
75450;SDS011;64029;48.244;9.188;2023-12-29T08:36:01;23.00;;;14.20;;
75450;SDS011;64029;48.244;9.188;2023-12-29T08:38:29;23.47;;;13.80;;
75450;SDS011;64029;48.244;9.188;2023-12-29T08:40:58;23.50;;;14.10;;
75450;SDS011;64029;48.244;9.188;2023-12-29T08:43:25;25.57;;;15.40;;
75450;SDS011;64029;48.244;9.188;2023-12-29T08:45:52;15.67;;;11.60;;
75450;SDS011;64029;48.244;9.188;2023-12-29T08:48:19;23.40;;;13.77;;
75450;SDS011;64029;48.244;9.188;2023-12-29T08:50:46;28.70;;;14.57;;
75450;SDS011;64029;48.244;9.188;2023-12-29T08:53:12;21.17;;;13.03;;
75450;SDS011;64029;48.244;9.188;2023-12-29T08:55:40;22.00;;;12.80;;
75450;SDS011;64029;48.244;9.188;2023-12-29T08:58:08;24.40;;;13.33;;
75450;SDS011;64029;48.244;9.188;2023-12-29T09:00:35;14.27;;;10.77;;
75450;SDS011;64029;48.244;9.188;2023-12-29T09:03:02;19.07;;;11.17;;
75450;SDS011;64029;48.244;9.188;2023-12-29T09:05:30;17.80;;;11.50;;
75450;SDS011;64029;48.244;9.188;2023-12-29T09:07:56;25.30;;;13.77;;
75450;SDS011;64029;48.244;9.188;2023-12-29T09:10:23;27.13;;;15.23;;
75450;SDS011;64029;48.244;9.188;2023-12-29T09:12:50;24.10;;;14.10;;
75450;SDS011;64029;48.244;9.188;2023-12-29T09:15:18;37.07;;;17.90;;
75450;SDS011;64029;48.244;9.188;2023-12-29T09:17:45;25.40;;;14.20;;
75450;SDS011;64029;48.244;9.188;2023-12-29T09:20:12;22.00;;;13.63;;
75450;SDS011;64029;48.244;9.188;2023-12-29T09:22:39;14.10;;;10.13;;
75450;SDS011;64029;48.244;9.188;2023-12-29T09:25:06;14.70;;;11.23;;
75450;SDS011;64029;48.244;9.188;2023-12-29T09:27:33;18.03;;;11.80;;
75450;SDS011;64029;48.244;9.188;2023-12-29T09:30:00;21.40;;;11.90;;
75450;SDS011;64029;48.244;9.188;2023-12-29T09:32:28;18.03;;;11.97;;
75450;SDS011;64029;48.244;9.188;2023-12-29T09:34:55;11.57;;;9.27;;
75450;SDS011;64029;48.244;9.188;2023-12-29T09:37:22;18.73;;;10.70;;
75450;SDS011;64029;48.244;9.188;2023-12-29T09:39:49;14.60;;;8.77;;
75450;SDS011;64029;48.244;9.188;2023-12-29T09:42:17;13.30;;;9.40;;
75450;SDS011;64029;48.244;9.188;2023-12-29T09:44:49;13.53;;;9.10;;
75450;SDS011;64029;48.244;9.188;2023-12-29T09:47:18;12.37;;;9.30;;
75450;SDS011;64029;48.244;9.188;2023-12-29T09:49:49;18.13;;;12.27;;
75450;SDS011;64029;48.244;9.188;2023-12-29T09:52:19;15.87;;;11.70;;
75450;SDS011;64029;48.244;9.188;2023-12-29T09:54:47;18.63;;;12.87;;
75450;SDS011;64029;48.244;9.188;2023-12-29T09:57:16;16.90;;;12.50;;
75450;SDS011;64029;48.244;9.188;2023-12-29T09:59:44;22.93;;;14.10;;
75450;SDS011;64029;48.244;9.188;2023-12-29T10:02:12;15.90;;;10.37;;
75450;SDS011;64029;48.244;9.188;2023-12-29T10:04:41;18.47;;;12.90;;
75450;SDS011;64029;48.244;9.188;2023-12-29T10:07:10;22.33;;;13.93;;
75450;SDS011;64029;48.244;9.188;2023-12-29T10:09:42;23.50;;;14.67;;
75450;SDS011;64029;48.244;9.188;2023-12-29T10:12:11;25.20;;;13.47;;
75450;SDS011;64029;48.244;9.188;2023-12-29T10:14:41;18.23;;;12.80;;
75450;SDS011;64029;48.244;9.188;2023-12-29T10:17:15;14.30;;;10.20;;
75450;SDS011;64029;48.244;9.188;2023-12-29T10:19:58;20.63;;;12.47;;
75450;SDS011;64029;48.244;9.188;2023-12-29T10:22:36;11.80;;;8.00;;
75450;SDS011;64029;48.244;9.188;2023-12-29T10:25:10;13.97;;;10.63;;
75450;SDS011;64029;48.244;9.188;2023-12-29T10:27:37;12.97;;;8.40;;
75450;SDS011;64029;48.244;9.188;2023-12-29T10:30:05;11.30;;;8.27;;
75450;SDS011;64029;48.244;9.188;2023-12-29T10:32:37;13.00;;;8.57;;
75450;SDS011;64029;48.244;9.188;2023-12-29T10:35:07;10.90;;;8.17;;
75450;SDS011;64029;48.244;9.188;2023-12-29T10:37:37;9.37;;;7.30;;
75450;SDS011;64029;48.244;9.188;2023-12-29T10:40:05;15.73;;;10.60;;
75450;SDS011;64029;48.244;9.188;2023-12-29T10:42:33;15.90;;;9.70;;
75450;SDS011;64029;48.244;9.188;2023-12-29T10:45:07;16.70;;;11.13;;
75450;SDS011;64029;48.244;9.188;2023-12-29T10:47:35;15.57;;;9.10;;
75450;SDS011;64029;48.244;9.188;2023-12-29T10:50:03;15.30;;;9.70;;
75450;SDS011;64029;48.244;9.188;2023-12-29T10:52:31;12.53;;;9.37;;
75450;SDS011;64029;48.244;9.188;2023-12-29T10:55:06;9.20;;;7.27;;
75450;SDS011;64029;48.244;9.188;2023-12-29T10:57:35;11.30;;;8.43;;
75450;SDS011;64029;48.244;9.188;2023-12-29T11:00:03;13.13;;;7.90;;
75450;SDS011;64029;48.244;9.188;2023-12-29T11:02:33;9.13;;;7.53;;
75450;SDS011;64029;48.244;9.188;2023-12-29T11:05:03;10.63;;;7.43;;
75450;SDS011;64029;48.244;9.188;2023-12-29T11:07:31;10.47;;;7.53;;
75450;SDS011;64029;48.244;9.188;2023-12-29T11:10:00;8.83;;;6.73;;
75450;SDS011;64029;48.244;9.188;2023-12-29T11:12:29;8.87;;;7.17;;
75450;SDS011;64029;48.244;9.188;2023-12-29T11:14:58;8.53;;;6.77;;
75450;SDS011;64029;48.244;9.188;2023-12-29T11:17:27;8.63;;;6.50;;
75450;SDS011;64029;48.244;9.188;2023-12-29T11:19:57;8.60;;;6.00;;
75450;SDS011;64029;48.244;9.188;2023-12-29T11:22:25;13.23;;;8.17;;
75450;SDS011;64029;48.244;9.188;2023-12-29T11:24:54;10.97;;;8.23;;
75450;SDS011;64029;48.244;9.188;2023-12-29T11:27:23;10.17;;;7.70;;
75450;SDS011;64029;48.244;9.188;2023-12-29T11:29:56;18.00;;;8.63;;
75450;SDS011;64029;48.244;9.188;2023-12-29T11:32:24;12.00;;;8.70;;
75450;SDS011;64029;48.244;9.188;2023-12-29T11:34:59;10.43;;;7.60;;
75450;SDS011;64029;48.244;9.188;2023-12-29T11:37:36;9.57;;;7.20;;
75450;SDS011;64029;48.244;9.188;2023-12-29T11:40:18;9.10;;;7.40;;
75450;SDS011;64029;48.244;9.188;2023-12-29T11:42:47;10.80;;;8.37;;
75450;SDS011;64029;48.244;9.188;2023-12-29T11:45:28;13.10;;;8.53;;
75450;SDS011;64029;48.244;9.188;2023-12-29T11:47:57;10.13;;;7.80;;
75450;SDS011;64029;48.244;9.188;2023-12-29T11:50:27;11.93;;;8.40;;
75450;SDS011;64029;48.244;9.188;2023-12-29T11:52:55;11.23;;;7.80;;
75450;SDS011;64029;48.244;9.188;2023-12-29T11:55:23;8.20;;;7.33;;
75450;SDS011;64029;48.244;9.188;2023-12-29T11:57:54;12.13;;;8.10;;
75450;SDS011;64029;48.244;9.188;2023-12-29T12:00:21;8.57;;;7.20;;
75450;SDS011;64029;48.244;9.188;2023-12-29T12:03:19;11.47;;;7.40;;
75450;SDS011;64029;48.244;9.188;2023-12-29T12:05:51;10.30;;;7.30;;
75450;SDS011;64029;48.244;9.188;2023-12-29T12:08:27;11.30;;;7.57;;
75450;SDS011;64029;48.244;9.188;2023-12-29T12:10:56;8.70;;;7.20;;
75450;SDS011;64029;48.244;9.188;2023-12-29T12:13:42;8.93;;;7.10;;
75450;SDS011;64029;48.244;9.188;2023-12-29T12:16:10;7.87;;;6.90;;
75450;SDS011;64029;48.244;9.188;2023-12-29T12:19:14;10.50;;;7.53;;
75450;SDS011;64029;48.244;9.188;2023-12-29T12:21:42;7.30;;;6.10;;
75450;SDS011;64029;48.244;9.188;2023-12-29T12:24:12;7.13;;;6.13;;
75450;SDS011;64029;48.244;9.188;2023-12-29T12:26:39;6.87;;;6.10;;
75450;SDS011;64029;48.244;9.188;2023-12-29T12:29:06;6.23;;;5.60;;
75450;SDS011;64029;48.244;9.188;2023-12-29T12:31:35;12.97;;;9.67;;
75450;SDS011;64029;48.244;9.188;2023-12-29T12:34:02;22.13;;;11.50;;
75450;SDS011;64029;48.244;9.188;2023-12-29T12:36:31;16.37;;;9.37;;
75450;SDS011;64029;48.244;9.188;2023-12-29T12:38:58;10.60;;;8.20;;
75450;SDS011;64029;48.244;9.188;2023-12-29T12:41:25;10.23;;;7.83;;
75450;SDS011;64029;48.244;9.188;2023-12-29T12:43:57;9.70;;;7.53;;
75450;SDS011;64029;48.244;9.188;2023-12-29T12:46:30;11.80;;;8.30;;
75450;SDS011;64029;48.244;9.188;2023-12-29T12:49:02;11.10;;;9.20;;
75450;SDS011;64029;48.244;9.188;2023-12-29T12:51:30;11.00;;;7.87;;
75450;SDS011;64029;48.244;9.188;2023-12-29T12:53:58;8.70;;;7.80;;
75450;SDS011;64029;48.244;9.188;2023-12-29T12:56:26;10.80;;;6.40;;
75450;SDS011;64029;48.244;9.188;2023-12-29T12:58:54;9.03;;;7.40;;
75450;SDS011;64029;48.244;9.188;2023-12-29T13:01:22;10.03;;;7.57;;
75450;SDS011;64029;48.244;9.188;2023-12-29T13:03:49;9.00;;;7.13;;
75450;SDS011;64029;48.244;9.188;2023-12-29T13:06:18;9.67;;;8.13;;
75450;SDS011;64029;48.244;9.188;2023-12-29T13:08:47;9.83;;;6.47;;
75450;SDS011;64029;48.244;9.188;2023-12-29T13:11:18;9.90;;;7.47;;
75450;SDS011;64029;48.244;9.188;2023-12-29T13:13:47;11.40;;;7.80;;
75450;SDS011;64029;48.244;9.188;2023-12-29T13:16:14;11.87;;;7.80;;
75450;SDS011;64029;48.244;9.188;2023-12-29T13:18:41;9.50;;;7.27;;
75450;SDS011;64029;48.244;9.188;2023-12-29T13:21:07;8.93;;;7.40;;
75450;SDS011;64029;48.244;9.188;2023-12-29T13:23:36;8.03;;;6.50;;
75450;SDS011;64029;48.244;9.188;2023-12-29T13:26:04;9.67;;;7.13;;
75450;SDS011;64029;48.244;9.188;2023-12-29T13:28:33;7.80;;;6.30;;
75450;SDS011;64029;48.244;9.188;2023-12-29T13:31:00;7.23;;;6.27;;
75450;SDS011;64029;48.244;9.188;2023-12-29T13:33:29;8.10;;;5.80;;
75450;SDS011;64029;48.244;9.188;2023-12-29T13:36:05;12.53;;;6.17;;
75450;SDS011;64029;48.244;9.188;2023-12-29T13:38:39;7.50;;;5.47;;
75450;SDS011;64029;48.244;9.188;2023-12-29T13:41:12;6.97;;;6.17;;
75450;SDS011;64029;48.244;9.188;2023-12-29T13:43:42;10.43;;;7.07;;
75450;SDS011;64029;48.244;9.188;2023-12-29T13:46:11;7.87;;;7.03;;
75450;SDS011;64029;48.244;9.188;2023-12-29T13:48:41;7.60;;;6.37;;
75450;SDS011;64029;48.244;9.188;2023-12-29T13:51:10;5.73;;;5.13;;
75450;SDS011;64029;48.244;9.188;2023-12-29T13:53:39;6.23;;;4.80;;
75450;SDS011;64029;48.244;9.188;2023-12-29T13:56:06;4.60;;;4.20;;
75450;SDS011;64029;48.244;9.188;2023-12-29T13:58:34;4.77;;;3.93;;
75450;SDS011;64029;48.244;9.188;2023-12-29T14:01:01;4.73;;;3.43;;
75450;SDS011;64029;48.244;9.188;2023-12-29T14:03:34;4.80;;;4.40;;
75450;SDS011;64029;48.244;9.188;2023-12-29T14:06:07;8.70;;;5.37;;
75450;SDS011;64029;48.244;9.188;2023-12-29T14:08:40;5.60;;;4.50;;
75450;SDS011;64029;48.244;9.188;2023-12-29T14:11:10;5.33;;;4.80;;
75450;SDS011;64029;48.244;9.188;2023-12-29T14:13:40;4.33;;;3.70;;
75450;SDS011;64029;48.244;9.188;2023-12-29T14:16:08;5.33;;;4.03;;
75450;SDS011;64029;48.244;9.188;2023-12-29T14:18:40;5.20;;;4.30;;
75450;SDS011;64029;48.244;9.188;2023-12-29T14:21:20;6.83;;;4.07;;
75450;SDS011;64029;48.244;9.188;2023-12-29T14:26:43;8.10;;;4.17;;
75450;SDS011;64029;48.244;9.188;2023-12-29T14:29:21;4.77;;;3.37;;
75450;SDS011;64029;48.244;9.188;2023-12-29T14:31:49;6.70;;;3.67;;
75450;SDS011;64029;48.244;9.188;2023-12-29T14:34:17;4.10;;;3.70;;
75450;SDS011;64029;48.244;9.188;2023-12-29T14:36:44;4.50;;;3.67;;
75450;SDS011;64029;48.244;9.188;2023-12-29T14:39:11;3.80;;;2.97;;
75450;SDS011;64029;48.244;9.188;2023-12-29T14:41:41;3.63;;;3.07;;
75450;SDS011;64029;48.244;9.188;2023-12-29T14:44:08;5.40;;;3.00;;
75450;SDS011;64029;48.244;9.188;2023-12-29T14:46:36;3.30;;;2.60;;
75450;SDS011;64029;48.244;9.188;2023-12-29T14:49:03;3.83;;;3.53;;